sensor_id;sensor_type;location;lat;lon;timestamp;pressure;altitude;pressure_sealevel;temperature;humidity
21902;BME280;11115;46.038;14.612;2023-12-14T00:01:48;97173.28;;;3.88;100.00
21902;BME280;11115;46.038;14.612;2023-12-14T00:04:16;97196.84;;;4.03;100.00
21902;BME280;11115;46.038;14.612;2023-12-14T00:06:45;97227.53;;;4.18;100.00
21902;BME280;11115;46.038;14.612;2023-12-14T00:09:13;97236.72;;;4.09;100.00
21902;BME280;11115;46.038;14.612;2023-12-14T00:11:41;97230.34;;;4.13;100.00
21902;BME280;11115;46.038;14.612;2023-12-14T00:14:09;97243.44;;;4.16;100.00
21902;BME280;11115;46.038;14.612;2023-12-14T00:16:37;97248.03;;;4.02;100.00
21902;BME280;11115;46.038;14.612;2023-12-14T00:19:06;97215.72;;;3.85;100.00
21902;BME280;11115;46.038;14.612;2023-12-14T00:21:34;97248.03;;;4.02;100.00
21902;BME280;11115;46.038;14.612;2023-12-14T00:24:02;97213.44;;;3.74;100.00
21902;BME280;11115;46.038;14.612;2023-12-14T00:26:31;97253.50;;;4.02;100.00
21902;BME280;11115;46.038;14.612;2023-12-14T00:28:59;97216.56;;;3.86;100.00
21902;BME280;11115;46.038;14.612;2023-12-14T00:31:28;97212.69;;;3.87;100.00
21902;BME280;11115;46.038;14.612;2023-12-14T00:33:57;97219.63;;;3.79;100.00
21902;BME280;11115;46.038;14.612;2023-12-14T00:36:25;97203.81;;;3.57;100.00
21902;BME280;11115;46.038;14.612;2023-12-14T00:38:53;97258.16;;;4.02;100.00
21902;BME280;11115;46.038;14.612;2023-12-14T00:41:22;97236.88;;;3.80;100.00
21902;BME280;11115;46.038;14.612;2023-12-14T00:43:50;97225.41;;;3.78;100.00
21902;BME280;11115;46.038;14.612;2023-12-14T00:46:18;97258.91;;;3.88;100.00
21902;BME280;11115;46.038;14.612;2023-12-14T00:48:46;97250.31;;;3.76;100.00
21902;BME280;11115;46.038;14.612;2023-12-14T00:51:14;97228.44;;;3.57;100.00
21902;BME280;11115;46.038;14.612;2023-12-14T00:53:42;97236.00;;;3.42;100.00
21902;BME280;11115;46.038;14.612;2023-12-14T00:56:10;97268.34;;;3.77;100.00
21902;BME280;11115;46.038;14.612;2023-12-14T00:58:39;97259.84;;;3.79;100.00
21902;BME280;11115;46.038;14.612;2023-12-14T01:01:07;97285.75;;;3.86;100.00
21902;BME280;11115;46.038;14.612;2023-12-14T01:03:35;97288.84;;;3.80;100.00
21902;BME280;11115;46.038;14.612;2023-12-14T01:06:03;97196.81;;;3.27;100.00
21902;BME280;11115;46.038;14.612;2023-12-14T01:08:31;97281.16;;;3.82;100.00
21902;BME280;11115;46.038;14.612;2023-12-14T01:11:02;97264.38;;;3.70;100.00
21902;BME280;11115;46.038;14.612;2023-12-14T01:13:30;97291.56;;;3.80;100.00
21902;BME280;11115;46.038;14.612;2023-12-14T01:15:58;97249.88;;;3.69;100.00
21902;BME280;11115;46.038;14.612;2023-12-14T01:18:27;97286.03;;;3.85;100.00
21902;BME280;11115;46.038;14.612;2023-12-14T01:20:55;97303.25;;;3.85;100.00
21902;BME280;11115;46.038;14.612;2023-12-14T01:23:23;97301.41;;;3.81;100.00
21902;BME280;11115;46.038;14.612;2023-12-14T01:25:51;97303.31;;;3.80;100.00
21902;BME280;11115;46.038;14.612;2023-12-14T01:28:19;97297.63;;;3.77;100.00
21902;BME280;11115;46.038;14.612;2023-12-14T01:30:47;97310.50;;;3.76;100.00
21902;BME280;11115;46.038;14.612;2023-12-14T01:33:16;97293.97;;;3.62;100.00
21902;BME280;11115;46.038;14.612;2023-12-14T01:35:44;97315.44;;;3.74;100.00
21902;BME280;11115;46.038;14.612;2023-12-14T01:38:12;97319.88;;;3.70;100.00
21902;BME280;11115;46.038;14.612;2023-12-14T01:40:40;97290.56;;;3.52;100.00
21902;BME280;11115;46.038;14.612;2023-12-14T01:43:10;97317.88;;;3.76;100.00
21902;BME280;11115;46.038;14.612;2023-12-14T01:45:38;97325.50;;;3.79;100.00
21902;BME280;11115;46.038;14.612;2023-12-14T01:48:06;97330.53;;;3.72;100.00
21902;BME280;11115;46.038;14.612;2023-12-14T01:50:35;97340.53;;;3.57;100.00
21902;BME280;11115;46.038;14.612;2023-12-14T01:53:03;97343.72;;;3.64;100.00
21902;BME280;11115;46.038;14.612;2023-12-14T01:55:31;97335.47;;;3.70;100.00
21902;BME280;11115;46.038;14.612;2023-12-14T01:58:00;97343.53;;;3.80;100.00
21902;BME280;11115;46.038;14.612;2023-12-14T02:00:38;97349.94;;;3.94;100.00
21902;BME280;11115;46.038;14.612;2023-12-14T02:03:08;97361.69;;;3.94;100.00
21902;BME280;11115;46.038;14.612;2023-12-14T02:05:36;97356.88;;;3.86;100.00
21902;BME280;11115;46.038;14.612;2023-12-14T02:08:04;97356.16;;;4.00;100.00
21902;BME280;11115;46.038;14.612;2023-12-14T02:10:32;97355.84;;;4.01;100.00
21902;BME280;11115;46.038;14.612;2023-12-14T02:13:02;97251.44;;;3.32;100.00
21902;BME280;11115;46.038;14.612;2023-12-14T02:15:30;97332.00;;;3.83;100.00
21902;BME280;11115;46.038;14.612;2023-12-14T02:17:59;97335.53;;;3.88;100.00
21902;BME280;11115;46.038;14.612;2023-12-14T02:20:27;97367.78;;;4.10;100.00
21902;BME280;11115;46.038;14.612;2023-12-14T02:22:55;97367.78;;;4.10;100.00
21902;BME280;11115;46.038;14.612;2023-12-14T02:25:26;97363.03;;;3.97;100.00
21902;BME280;11115;46.038;14.612;2023-12-14T02:27:54;97386.47;;;4.03;100.00
21902;BME280;11115;46.038;14.612;2023-12-14T02:30:22;97361.69;;;3.94;100.00
21902;BME280;11115;46.038;14.612;2023-12-14T02:32:51;97324.03;;;3.68;100.00
21902;BME280;11115;46.038;14.612;2023-12-14T02:35:19;97337.69;;;3.68;100.00
21902;BME280;11115;46.038;14.612;2023-12-14T02:37:49;97389.94;;;3.90;100.00
21902;BME280;11115;46.038;14.612;2023-12-14T02:40:17;97330.81;;;3.46;100.00
21902;BME280;11115;46.038;14.612;2023-12-14T02:42:45;97408.81;;;3.91;100.00
21902;BME280;11115;46.038;14.612;2023-12-14T02:45:13;97407.09;;;3.95;100.00
21902;BME280;11115;46.038;14.612;2023-12-14T02:47:41;97409.31;;;3.93;100.00
21902;BME280;11115;46.038;14.612;2023-12-14T02:50:10;97410.06;;;3.99;100.00
21902;BME280;11115;46.038;14.612;2023-12-14T02:52:38;97390.91;;;3.99;100.00
21902;BME280;11115;46.038;14.612;2023-12-14T02:55:06;97409.19;;;4.04;100.00
21902;BME280;11115;46.038;14.612;2023-12-14T02:57:34;97356.03;;;3.67;100.00
21902;BME280;11115;46.038;14.612;2023-12-14T03:00:08;97377.41;;;3.84;100.00
21902;BME280;11115;46.038;14.612;2023-12-14T03:02:37;97384.09;;;3.96;100.00
21902;BME280;11115;46.038;14.612;2023-12-14T03:05:05;97401.59;;;4.19;100.00
21902;BME280;11115;46.038;14.612;2023-12-14T03:07:36;97404.31;;;4.19;100.00
21902;BME280;11115;46.038;14.612;2023-12-14T03:10:05;97409.06;;;4.14;100.00
21902;BME280;11115;46.038;14.612;2023-12-14T03:12:33;97347.91;;;3.81;100.00
21902;BME280;11115;46.038;14.612;2023-12-14T03:15:01;97387.94;;;3.95;100.00
21902;BME280;11115;46.038;14.612;2023-12-14T03:17:30;97377.88;;;3.91;100.00
21902;BME280;11115;46.038;14.612;2023-12-14T03:19:58;97410.69;;;4.15;100.00
21902;BME280;11115;46.038;14.612;2023-12-14T03:22:26;97402.91;;;4.03;100.00
21902;BME280;11115;46.038;14.612;2023-12-14T03:24:54;97424.09;;;4.16;100.00
21902;BME280;11115;46.038;14.612;2023-12-14T03:27:22;97380.97;;;3.84;100.00
21902;BME280;11115;46.038;14.612;2023-12-14T03:29:51;97441.69;;;4.10;100.00
21902;BME280;11115;46.038;14.612;2023-12-14T03:32:19;97432.44;;;4.06;100.00
21902;BME280;11115;46.038;14.612;2023-12-14T03:34:47;97438.06;;;4.15;100.00
21902;BME280;11115;46.038;14.612;2023-12-14T03:37:15;97453.31;;;4.21;100.00
21902;BME280;11115;46.038;14.612;2023-12-14T03:39:43;97441.16;;;4.08;100.00
21902;BME280;11115;46.038;14.612;2023-12-14T03:42:12;97436.47;;;3.90;100.00
21902;BME280;11115;46.038;14.612;2023-12-14T03:44:40;97462.00;;;4.04;100.00
21902;BME280;11115;46.038;14.612;2023-12-14T03:47:08;97459.72;;;4.11;100.00
21902;BME280;11115;46.038;14.612;2023-12-14T03:49:37;97463.81;;;4.14;100.00
21902;BME280;11115;46.038;14.612;2023-12-14T03:52:05;97447.56;;;3.99;100.00
21902;BME280;11115;46.038;14.612;2023-12-14T03:54:34;97452.63;;;4.10;100.00
21902;BME280;11115;46.038;14.612;2023-12-14T03:57:02;97469.97;;;4.24;100.00
21902;BME280;11115;46.038;14.612;2023-12-14T03:59:30;97469.97;;;4.24;100.00
21902;BME280;11115;46.038;14.612;2023-12-14T04:01:59;97441.56;;;3.96;100.00
21902;BME280;11115;46.038;14.612;2023-12-14T04:04:27;97467.81;;;4.21;100.00
21902;BME280;11115;46.038;14.612;2023-12-14T04:06:55;97457.38;;;4.23;100.00
21902;BME280;11115;46.038;14.612;2023-12-14T04:09:24;97464.44;;;4.30;100.00
21902;BME280;11115;46.038;14.612;2023-12-14T04:11:52;97454.88;;;4.27;100.00
21902;BME280;11115;46.038;14.612;2023-12-14T04:14:20;97438.59;;;4.17;100.00
21902;BME280;11115;46.038;14.612;2023-12-14T04:16:48;97448.72;;;4.16;100.00
21902;BME280;11115;46.038;14.612;2023-12-14T04:19:16;97475.31;;;4.35;100.00
21902;BME280;11115;46.038;14.612;2023-12-14T04:21:44;97482.66;;;4.39;100.00
21902;BME280;11115;46.038;14.612;2023-12-14T04:24:13;97478.50;;;4.42;100.00
21902;BME280;11115;46.038;14.612;2023-12-14T04:26:41;97421.53;;;4.01;100.00
21902;BME280;11115;46.038;14.612;2023-12-14T04:29:09;97470.06;;;4.38;100.00
21902;BME280;11115;46.038;14.612;2023-12-14T04:31:37;97447.78;;;4.26;100.00
21902;BME280;11115;46.038;14.612;2023-12-14T04:34:05;97456.00;;;4.26;100.00
21902;BME280;11115;46.038;14.612;2023-12-14T04:36:38;97463.41;;;4.25;100.00
21902;BME280;11115;46.038;14.612;2023-12-14T04:39:07;97468.00;;;4.30;100.00
21902;BME280;11115;46.038;14.612;2023-12-14T04:41:35;97444.13;;;4.12;100.00
21902;BME280;11115;46.038;14.612;2023-12-14T04:44:03;97485.44;;;4.34;100.00
21902;BME280;11115;46.038;14.612;2023-12-14T04:46:31;97479.06;;;4.20;100.00
21902;BME280;11115;46.038;14.612;2023-12-14T04:49:00;97479.34;;;4.18;100.00
21902;BME280;11115;46.038;14.612;2023-12-14T04:51:28;97483.66;;;4.24;100.00
21902;BME280;11115;46.038;14.612;2023-12-14T04:53:56;97497.22;;;4.35;100.00
21902;BME280;11115;46.038;14.612;2023-12-14T04:56:24;97410.38;;;3.74;100.00
21902;BME280;11115;46.038;14.612;2023-12-14T04:58:52;97500.66;;;4.21;100.00
21902;BME280;11115;46.038;14.612;2023-12-14T05:01:21;97498.69;;;4.27;100.00
21902;BME280;11115;46.038;14.612;2023-12-14T05:03:49;97478.09;;;4.11;100.00
21902;BME280;11115;46.038;14.612;2023-12-14T05:06:18;97491.28;;;4.28;100.00
21902;BME280;11115;46.038;14.612;2023-12-14T05:08:46;97501.66;;;4.31;100.00
21902;BME280;11115;46.038;14.612;2023-12-14T05:11:14;97496.25;;;4.25;100.00
21902;BME280;11115;46.038;14.612;2023-12-14T05:13:42;97496.28;;;4.20;100.00
21902;BME280;11115;46.038;14.612;2023-12-14T05:16:14;97412.66;;;3.67;100.00
21902;BME280;11115;46.038;14.612;2023-12-14T05:18:42;97494.44;;;4.16;100.00
21902;BME280;11115;46.038;14.612;2023-12-14T05:21:17;97505.84;;;4.23;100.00
21902;BME280;11115;46.038;14.612;2023-12-14T05:23:45;97508.56;;;4.23;100.00
21902;BME280;11115;46.038;14.612;2023-12-14T05:26:13;97474.63;;;4.00;100.00
21902;BME280;11115;46.038;14.612;2023-12-14T05:28:42;97481.44;;;4.03;100.00
21902;BME280;11115;46.038;14.612;2023-12-14T05:31:11;97512.69;;;4.25;100.00
21902;BME280;11115;46.038;14.612;2023-12-14T05:33:39;97518.69;;;4.28;100.00
21902;BME280;11115;46.038;14.612;2023-12-14T05:36:08;97527.06;;;4.12;100.00
21902;BME280;11115;46.038;14.612;2023-12-14T05:38:38;97354.09;;;2.86;100.00
21902;BME280;11115;46.038;14.612;2023-12-14T05:41:06;97488.72;;;3.59;100.00
21902;BME280;11115;46.038;14.612;2023-12-14T05:43:35;97544.69;;;4.01;100.00
21902;BME280;11115;46.038;14.612;2023-12-14T05:46:03;97497.25;;;3.82;100.00
21902;BME280;11115;46.038;14.612;2023-12-14T05:48:31;97536.38;;;4.11;100.00
21902;BME280;11115;46.038;14.612;2023-12-14T05:51:00;97540.16;;;4.15;100.00
21902;BME280;11115;46.038;14.612;2023-12-14T05:53:28;97542.44;;;4.08;100.00
21902;BME280;11115;46.038;14.612;2023-12-14T05:55:56;97558.56;;;4.10;100.00
21902;BME280;11115;46.038;14.612;2023-12-14T05:58:26;97541.94;;;4.01;100.00
21902;BME280;11115;46.038;14.612;2023-12-14T06:00:55;97553.91;;;4.10;100.00
21902;BME280;11115;46.038;14.612;2023-12-14T06:03:23;97552.31;;;4.04;100.00
21902;BME280;11115;46.038;14.612;2023-12-14T06:05:51;97497.03;;;3.78;100.00
21902;BME280;11115;46.038;14.612;2023-12-14T06:08:20;97561.75;;;4.17;100.00
21902;BME280;11115;46.038;14.612;2023-12-14T06:10:48;97557.44;;;4.11;100.00
21902;BME280;11115;46.038;14.612;2023-12-14T06:13:16;97545.09;;;3.89;100.00
21902;BME280;11115;46.038;14.612;2023-12-14T06:15:44;97575.59;;;4.02;100.00
21902;BME280;11115;46.038;14.612;2023-12-14T06:18:12;97577.22;;;4.03;100.00
21902;BME280;11115;46.038;14.612;2023-12-14T06:20:40;97539.94;;;3.83;100.00
21902;BME280;11115;46.038;14.612;2023-12-14T06:23:09;97584.81;;;4.11;100.00
21902;BME280;11115;46.038;14.612;2023-12-14T06:25:37;97576.94;;;4.04;100.00
21902;BME280;11115;46.038;14.612;2023-12-14T06:28:05;97588.78;;;4.23;100.00
21902;BME280;11115;46.038;14.612;2023-12-14T06:30:33;97550.88;;;3.83;100.00
21902;BME280;11115;46.038;14.612;2023-12-14T06:33:01;97585.94;;;4.10;100.00
21902;BME280;11115;46.038;14.612;2023-12-14T06:35:30;97512.88;;;3.52;100.00
21902;BME280;11115;46.038;14.612;2023-12-14T06:37:58;97609.75;;;4.09;100.00
21902;BME280;11115;46.038;14.612;2023-12-14T06:40:26;97602.94;;;4.07;100.00
21902;BME280;11115;46.038;14.612;2023-12-14T06:42:54;97542.78;;;3.73;100.00
21902;BME280;11115;46.038;14.612;2023-12-14T06:45:22;97546.41;;;3.63;100.00
21902;BME280;11115;46.038;14.612;2023-12-14T06:47:50;97544.47;;;3.63;100.00
21902;BME280;11115;46.038;14.612;2023-12-14T06:50:20;97646.66;;;4.12;100.00
21902;BME280;11115;46.038;14.612;2023-12-14T06:52:48;97642.63;;;4.04;100.00
21902;BME280;11115;46.038;14.612;2023-12-14T06:55:16;97654.66;;;4.08;100.00
21902;BME280;11115;46.038;14.612;2023-12-14T06:57:44;97657.03;;;4.15;100.00
21902;BME280;11115;46.038;14.612;2023-12-14T07:00:14;97649.34;;;4.17;100.00
21902;BME280;11115;46.038;14.612;2023-12-14T07:02:43;97612.03;;;3.97;100.00
21902;BME280;11115;46.038;14.612;2023-12-14T07:05:12;97669.19;;;4.33;100.00
21902;BME280;11115;46.038;14.612;2023-12-14T07:07:40;97648.81;;;4.15;100.00
21902;BME280;11115;46.038;14.612;2023-12-14T07:10:09;97662.91;;;4.32;100.00
21902;BME280;11115;46.038;14.612;2023-12-14T07:12:37;97685.38;;;4.29;100.00
21902;BME280;11115;46.038;14.612;2023-12-14T07:15:06;97682.31;;;4.36;100.00
21902;BME280;11115;46.038;14.612;2023-12-14T07:17:34;97639.47;;;4.21;100.00
21902;BME280;11115;46.038;14.612;2023-12-14T07:20:02;97668.03;;;4.39;100.00
21902;BME280;11115;46.038;14.612;2023-12-14T07:22:31;97694.63;;;4.62;100.00
21902;BME280;11115;46.038;14.612;2023-12-14T07:24:59;97654.88;;;4.41;100.00
21902;BME280;11115;46.038;14.612;2023-12-14T07:27:28;97694.59;;;4.67;100.00
21902;BME280;11115;46.038;14.612;2023-12-14T07:29:56;97654.31;;;4.44;100.00
21902;BME280;11115;46.038;14.612;2023-12-14T07:32:24;97711.00;;;4.72;100.00
21902;BME280;11115;46.038;14.612;2023-12-14T07:34:53;97695.88;;;4.51;100.00
21902;BME280;11115;46.038;14.612;2023-12-14T07:37:24;97695.28;;;4.54;100.00
21902;BME280;11115;46.038;14.612;2023-12-14T07:39:53;97701.00;;;4.57;100.00
21902;BME280;11115;46.038;14.612;2023-12-14T07:42:21;97709.53;;;4.80;100.00
21902;BME280;11115;46.038;14.612;2023-12-14T07:44:49;97708.19;;;4.77;100.00
21902;BME280;11115;46.038;14.612;2023-12-14T07:47:17;97698.84;;;4.54;100.00
21902;BME280;11115;46.038;14.612;2023-12-14T07:49:46;97737.72;;;4.85;100.00
21902;BME280;11115;46.038;14.612;2023-12-14T07:52:14;97740.44;;;4.85;100.00
21902;BME280;11115;46.038;14.612;2023-12-14T07:54:42;97648.25;;;4.18;100.00
21902;BME280;11115;46.038;14.612;2023-12-14T07:57:10;97750.97;;;4.73;100.00
21902;BME280;11115;46.038;14.612;2023-12-14T07:59:38;97755.88;;;4.76;100.00
21902;BME280;11115;46.038;14.612;2023-12-14T08:02:07;97706.00;;;4.50;100.00
21902;BME280;11115;46.038;14.612;2023-12-14T08:04:35;97761.56;;;4.85;100.00
21902;BME280;11115;46.038;14.612;2023-12-14T08:07:03;97730.00;;;4.64;100.00
21902;BME280;11115;46.038;14.612;2023-12-14T08:09:32;97694.03;;;4.41;100.00
21902;BME280;11115;46.038;14.612;2023-12-14T08:12:00;97765.06;;;4.91;100.00
21902;BME280;11115;46.038;14.612;2023-12-14T08:14:28;97768.03;;;4.94;100.00
21902;BME280;11115;46.038;14.612;2023-12-14T08:16:56;97767.28;;;4.88;100.00
21902;BME280;11115;46.038;14.612;2023-12-14T08:19:24;97778.69;;;4.96;100.00
21902;BME280;11115;46.038;14.612;2023-12-14T08:21:53;97787.97;;;5.00;100.00
21902;BME280;11115;46.038;14.612;2023-12-14T08:24:21;97775.91;;;5.01;100.00
21902;BME280;11115;46.038;14.612;2023-12-14T08:26:49;97661.50;;;4.35;100.00
21902;BME280;11115;46.038;14.612;2023-12-14T08:29:18;97766.94;;;4.95;100.00
21902;BME280;11115;46.038;14.612;2023-12-14T08:31:46;97760.44;;;4.86;100.00
21902;BME280;11115;46.038;14.612;2023-12-14T08:34:14;97761.28;;;4.86;100.00
21902;BME280;11115;46.038;14.612;2023-12-14T08:36:43;97806.56;;;5.32;100.00
21902;BME280;11115;46.038;14.612;2023-12-14T08:39:11;97802.03;;;5.22;100.00
21902;BME280;11115;46.038;14.612;2023-12-14T08:41:39;97810.41;;;5.31;100.00
21902;BME280;11115;46.038;14.612;2023-12-14T08:44:08;97784.63;;;5.08;100.00
21902;BME280;11115;46.038;14.612;2023-12-14T08:46:44;97815.44;;;5.24;100.00
21902;BME280;11115;46.038;14.612;2023-12-14T08:49:13;97823.03;;;5.32;100.00
21902;BME280;11115;46.038;14.612;2023-12-14T08:51:42;97804.88;;;5.36;100.00
21902;BME280;11115;46.038;14.612;2023-12-14T08:54:10;97737.81;;;4.75;100.00
21902;BME280;11115;46.038;14.612;2023-12-14T08:56:38;97830.34;;;5.12;100.00
21902;BME280;11115;46.038;14.612;2023-12-14T08:59:06;97827.53;;;5.23;100.00
21902;BME280;11115;46.038;14.612;2023-12-14T09:01:35;97836.16;;;5.35;100.00
21902;BME280;11115;46.038;14.612;2023-12-14T09:04:04;97748.81;;;4.70;100.00
21902;BME280;11115;46.038;14.612;2023-12-14T09:06:32;97780.53;;;5.05;100.00
21902;BME280;11115;46.038;14.612;2023-12-14T09:09:00;97848.66;;;5.46;100.00
21902;BME280;11115;46.038;14.612;2023-12-14T09:11:29;97828.75;;;5.35;100.00
21902;BME280;11115;46.038;14.612;2023-12-14T09:13:57;97842.75;;;5.34;100.00
21902;BME280;11115;46.038;14.612;2023-12-14T09:16:25;97841.34;;;5.36;100.00
21902;BME280;11115;46.038;14.612;2023-12-14T09:18:54;97799.72;;;5.05;100.00
21902;BME280;11115;46.038;14.612;2023-12-14T09:21:22;97859.50;;;5.32;100.00
21902;BME280;11115;46.038;14.612;2023-12-14T09:24:03;97849.78;;;5.16;100.00
21902;BME280;11115;46.038;14.612;2023-12-14T09:26:34;97865.78;;;5.33;100.00
21902;BME280;11115;46.038;14.612;2023-12-14T09:29:02;97856.06;;;5.16;100.00
21902;BME280;11115;46.038;14.612;2023-12-14T09:31:30;97861.72;;;5.30;100.00
21902;BME280;11115;46.038;14.612;2023-12-14T09:33:58;97871.63;;;5.26;100.00
21902;BME280;11115;46.038;14.612;2023-12-14T09:36:27;97872.53;;;5.45;100.00
21902;BME280;11115;46.038;14.612;2023-12-14T09:38:55;97865.25;;;5.31;100.00
21902;BME280;11115;46.038;14.612;2023-12-14T09:41:23;97858.38;;;5.33;100.00
21902;BME280;11115;46.038;14.612;2023-12-14T09:43:52;97876.22;;;5.60;100.00
21902;BME280;11115;46.038;14.612;2023-12-14T09:46:21;97884.47;;;5.55;100.00
21902;BME280;11115;46.038;14.612;2023-12-14T09:48:51;97793.50;;;4.95;100.00
21902;BME280;11115;46.038;14.612;2023-12-14T09:51:20;97871.47;;;5.41;100.00
21902;BME280;11115;46.038;14.612;2023-12-14T09:53:50;97882.44;;;5.41;100.00
21902;BME280;11115;46.038;14.612;2023-12-14T09:56:25;97849.47;;;5.23;100.00
21902;BME280;11115;46.038;14.612;2023-12-14T09:58:54;97883.00;;;5.38;100.00
21902;BME280;11115;46.038;14.612;2023-12-14T10:01:26;97874.22;;;5.41;100.00
21902;BME280;11115;46.038;14.612;2023-12-14T10:04:21;97887.28;;;5.73;100.00
21902;BME280;11115;46.038;14.612;2023-12-14T10:06:50;97884.56;;;5.73;100.00
21902;BME280;11115;46.038;14.612;2023-12-14T10:09:23;97878.31;;;5.68;100.00
21902;BME280;11115;46.038;14.612;2023-12-14T10:12:05;97886.53;;;5.68;100.00
21902;BME280;11115;46.038;14.612;2023-12-14T10:14:35;97894.25;;;5.66;100.00
21902;BME280;11115;46.038;14.612;2023-12-14T10:17:17;97904.06;;;5.72;100.00
21902;BME280;11115;46.038;14.612;2023-12-14T10:19:47;97905.75;;;5.68;100.00
21902;BME280;11115;46.038;14.612;2023-12-14T10:22:17;97897.50;;;5.44;100.00
21902;BME280;11115;46.038;14.612;2023-12-14T10:24:48;97883.81;;;5.39;100.00
21902;BME280;11115;46.038;14.612;2023-12-14T10:27:16;97906.44;;;5.55;100.00
21902;BME280;11115;46.038;14.612;2023-12-14T10:29:45;97900.34;;;5.63;100.00
21902;BME280;11115;46.038;14.612;2023-12-14T10:32:13;97895.13;;;5.61;100.00
21902;BME280;11115;46.038;14.612;2023-12-14T10:34:42;97891.22;;;5.43;100.00
21902;BME280;11115;46.038;14.612;2023-12-14T10:37:11;97889.34;;;5.63;100.00
21902;BME280;11115;46.038;14.612;2023-12-14T10:39:42;97894.63;;;5.59;100.00
21902;BME280;11115;46.038;14.612;2023-12-14T10:42:11;97850.66;;;5.40;100.00
21902;BME280;11115;46.038;14.612;2023-12-14T10:44:48;97894.06;;;5.57;100.00
21902;BME280;11115;46.038;14.612;2023-12-14T10:47:22;97900.78;;;5.70;100.00
21902;BME280;11115;46.038;14.612;2023-12-14T10:49:51;97894.25;;;5.66;100.00
21902;BME280;11115;46.038;14.612;2023-12-14T10:52:21;97898.03;;;5.70;100.00
21902;BME280;11115;46.038;14.612;2023-12-14T10:55:03;97912.19;;;5.82;100.00
21902;BME280;11115;46.038;14.612;2023-12-14T10:57:34;97895.59;;;5.68;100.00
21902;BME280;11115;46.038;14.612;2023-12-14T11:00:04;97924.41;;;5.42;100.00
21902;BME280;11115;46.038;14.612;2023-12-14T11:02:41;97917.84;;;5.38;100.00
21902;BME280;11115;46.038;14.612;2023-12-14T11:05:15;97897.75;;;5.47;100.00
21902;BME280;11115;46.038;14.612;2023-12-14T11:07:53;97913.09;;;5.72;100.00
21902;BME280;11115;46.038;14.612;2023-12-14T11:10:42;97918.69;;;5.91;100.00
21902;BME280;11115;46.038;14.612;2023-12-14T11:13:13;97926.66;;;5.88;100.00
21902;BME280;11115;46.038;14.612;2023-12-14T11:15:49;97932.97;;;5.88;100.00
21902;BME280;11115;46.038;14.612;2023-12-14T11:23:15;97937.63;;;5.93;100.00
21902;BME280;11115;46.038;14.612;2023-12-14T11:25:48;97943.53;;;6.05;100.00
21902;BME280;11115;46.038;14.612;2023-12-14T11:28:25;97941.00;;;6.08;100.00
21902;BME280;11115;46.038;14.612;2023-12-14T11:30:55;97946.56;;;6.03;100.00
21902;BME280;11115;46.038;14.612;2023-12-14T11:33:24;97948.44;;;6.08;100.00
21902;BME280;11115;46.038;14.612;2023-12-14T11:35:54;97945.44;;;6.04;100.00
21902;BME280;11115;46.038;14.612;2023-12-14T11:38:22;97929.59;;;5.96;100.00
21902;BME280;11115;46.038;14.612;2023-12-14T11:40:51;97950.88;;;6.09;100.00
21902;BME280;11115;46.038;14.612;2023-12-14T11:43:19;97958.44;;;5.99;100.00
21902;BME280;11115;46.038;14.612;2023-12-14T11:45:48;97937.66;;;5.88;100.00
21902;BME280;11115;46.038;14.612;2023-12-14T11:48:17;97939.53;;;6.16;100.00
21902;BME280;11115;46.038;14.612;2023-12-14T11:50:47;97932.84;;;6.03;100.00
21902;BME280;11115;46.038;14.612;2023-12-14T11:53:15;97952.34;;;6.26;100.00
21902;BME280;11115;46.038;14.612;2023-12-14T11:55:44;97917.97;;;5.81;100.00
21902;BME280;11115;46.038;14.612;2023-12-14T11:58:13;97950.41;;;6.02;100.00
21902;BME280;11115;46.038;14.612;2023-12-14T12:00:43;97954.06;;;5.98;100.00
21902;BME280;11115;46.038;14.612;2023-12-14T12:03:14;97951.03;;;5.94;100.00
21902;BME280;11115;46.038;14.612;2023-12-14T12:05:45;97952.75;;;5.90;100.00
21902;BME280;11115;46.038;14.612;2023-12-14T12:08:15;97962.00;;;5.99;100.00
21902;BME280;11115;46.038;14.612;2023-12-14T12:10:47;97965.25;;;6.01;100.00
21902;BME280;11115;46.038;14.612;2023-12-14T12:13:18;97966.59;;;6.04;100.00
21902;BME280;11115;46.038;14.612;2023-12-14T12:15:47;97955.19;;;5.92;100.00
21902;BME280;11115;46.038;14.612;2023-12-14T12:18:17;97957.97;;;5.87;100.00
21902;BME280;11115;46.038;14.612;2023-12-14T12:20:45;97962.84;;;5.95;100.00
21902;BME280;11115;46.038;14.612;2023-12-14T12:23:13;97955.91;;;6.02;100.00
21902;BME280;11115;46.038;14.612;2023-12-14T12:25:42;97957.41;;;5.90;100.00
21902;BME280;11115;46.038;14.612;2023-12-14T12:28:11;97882.97;;;5.43;100.00
21902;BME280;11115;46.038;14.612;2023-12-14T12:30:39;97945.56;;;5.94;100.00
21902;BME280;11115;46.038;14.612;2023-12-14T12:33:08;97931.94;;;5.84;100.00
21902;BME280;11115;46.038;14.612;2023-12-14T12:35:36;97964.25;;;5.92;100.00
21902;BME280;11115;46.038;14.612;2023-12-14T12:38:04;97964.81;;;5.89;100.00
21902;BME280;11115;46.038;14.612;2023-12-14T12:40:33;97957.59;;;5.69;100.00
21902;BME280;11115;46.038;14.612;2023-12-14T12:43:01;97976.72;;;5.79;100.00
21902;BME280;11115;46.038;14.612;2023-12-14T12:45:30;97970.28;;;5.89;100.00
21902;BME280;11115;46.038;14.612;2023-12-14T12:47:59;97960.63;;;5.97;100.00
21902;BME280;11115;46.038;14.612;2023-12-14T12:50:30;97965.41;;;5.86;100.00
21902;BME280;11115;46.038;14.612;2023-12-14T12:52:58;97969.13;;;6.00;100.00
21902;BME280;11115;46.038;14.612;2023-12-14T12:55:26;97970.06;;;5.86;100.00
21902;BME280;11115;46.038;14.612;2023-12-14T12:57:54;97972.56;;;5.82;100.00
21902;BME280;11115;46.038;14.612;2023-12-14T13:00:22;97965.78;;;5.74;100.00
21902;BME280;11115;46.038;14.612;2023-12-14T13:02:50;97978.91;;;5.77;100.00
21902;BME280;11115;46.038;14.612;2023-12-14T13:05:19;97985.94;;;5.89;100.00